Time;durP1;ratioP1;P1;durP2;ratioP2;P2;SDS_P1;SDS_P2;PMS_P1;PMS_P2;Temp;Humidity;BMP_temperature;BMP_pressure;BME280_temperature;BME280_humidity;BME280_pressure;Samples;Min_cycle;Max_cycle;Signal;HPM_P1;HPM_P2
2022/09/30 00:01:56;;;;;;;38.43;22.67;;;6.90;99.90;;;;;;4917712;29;20204;-81
2022/09/30 00:04:24;;;;;;;39.87;23.17;;;7.00;99.90;;;;;;4918228;29;20265;-84
2022/09/30 00:07:00;;;;;;;37.20;21.97;;;7.00;99.90;;;;;;4917639;29;20213;-80
2022/09/30 00:09:28;;;;;;;35.57;20.20;;;7.00;99.90;;;;;;4917652;29;20203;-83
2022/09/30 00:11:56;;;;;;;37.27;21.50;;;7.00;99.90;;;;;;4918519;29;20302;-81
2022/09/30 00:14:23;;;;;;;37.97;21.90;;;7.00;99.90;;;;;;4917180;29;20223;-82
2022/09/30 00:16:58;;;;;;;37.03;22.23;;;7.00;99.90;;;;;;4917230;29;20206;-81
2022/09/30 00:19:29;;;;;;;36.87;21.03;;;6.90;99.90;;;;;;4917435;29;20197;-83
2022/09/30 00:22:05;;;;;;;43.40;24.07;;;6.90;99.90;;;;;;4918525;29;20530;-81
2022/09/30 00:24:32;;;;;;;39.13;22.77;;;6.90;99.90;;;;;;4917210;29;20199;-81
2022/09/30 00:27:04;;;;;;;41.00;23.40;;;6.90;99.90;;;;;;4917545;29;20210;-84
2022/09/30 00:29:34;;;;;;;40.60;22.57;;;7.00;99.90;;;;;;4917389;29;20660;-81
2022/09/30 00:32:13;;;;;;;43.00;24.33;;;6.80;99.90;;;;;;4916977;29;20232;-82
2022/09/30 00:34:40;;;;;;;40.97;23.63;;;6.90;99.90;;;;;;4911716;29;20232;-81
2022/09/30 00:37:21;;;;;;;38.77;23.30;;;6.80;99.90;;;;;;4897999;29;20209;-79
2022/09/30 00:39:48;;;;;;;40.57;23.50;;;6.80;99.90;;;;;;4898143;29;20201;-81
2022/09/30 00:42:18;;;;;;;42.27;24.27;;;6.80;99.90;;;;;;4899253;29;20213;-82
2022/09/30 00:44:55;;;;;;;41.97;23.83;;;6.90;99.90;;;;;;4897686;29;20257;-79
2022/09/30 00:47:32;;;;;;;41.03;24.07;;;6.80;99.90;;;;;;4899256;29;20219;-79
2022/09/30 00:50:48;;;;;;;40.77;22.97;;;6.80;99.90;;;;;;4896175;29;20238;-80
2022/09/30 00:53:29;;;;;;;41.23;23.70;;;6.80;99.90;;;;;;4898075;29;20218;-80
2022/09/30 00:56:20;;;;;;;38.37;22.10;;;6.80;99.90;;;;;;4899040;29;20197;-80
2022/09/30 00:59:02;;;;;;;42.17;23.03;;;6.80;99.90;;;;;;4881882;29;20238;-80
2022/09/30 01:01:52;;;;;;;39.57;22.57;;;6.70;99.90;;;;;;4934861;23;20241;-79
2022/09/30 01:04:24;;;;;;;41.93;23.53;;;6.70;99.90;;;;;;4938703;29;20614;-80
2022/09/30 01:06:52;;;;;;;37.57;23.07;;;6.70;99.90;;;;;;4938482;29;20203;-81
2022/09/30 01:09:25;;;;;;;39.83;22.87;;;6.80;99.90;;;;;;4956023;29;20213;-79
2022/09/30 01:12:27;;;;;;;39.10;23.10;;;6.70;99.90;;;;;;4938354;29;20227;-81
2022/09/30 01:15:07;;;;;;;40.90;24.97;;;6.70;99.90;;;;;;4938989;29;20216;-80
2022/09/30 01:18:05;;;;;;;40.70;22.97;;;6.70;99.90;;;;;;4955919;29;20714;-79
2022/09/30 01:21:10;;;;;;;41.63;23.80;;;6.70;99.90;;;;;;4901105;28;20219;-81
2022/09/30 01:24:17;;;;;;;41.67;23.17;;;6.80;99.90;;;;;;4914001;23;20252;-80
2022/09/30 01:27:14;;;;;;;43.67;23.80;;;6.70;99.90;;;;;;4900160;29;20217;-79
2022/09/30 01:30:17;;;;;;;;;;;;;;;;;;;;;
2022/09/30 01:33:03;;;;;;;43.10;24.10;;;6.70;99.90;;;;;;4916036;29;20209;-80
2022/09/30 01:35:52;;;;;;;42.07;24.40;;;6.70;99.90;;;;;;4913037;29;20231;-80
2022/09/30 01:38:50;;;;;;;40.03;23.80;;;6.80;99.90;;;;;;4897176;29;20211;-79
2022/09/30 01:41:41;;;;;;;40.53;23.47;;;6.70;99.90;;;;;;4881695;29;20210;-79
2022/09/30 01:44:57;;;;;;;40.83;23.60;;;6.70;99.90;;;;;;4898267;29;20196;-81
2022/09/30 01:48:17;;;;;;;40.80;23.27;;;6.70;99.90;;;;;;4870834;23;20672;-80
2022/09/30 01:51:07;;;;;;;41.60;23.03;;;6.70;99.90;;;;;;4903177;29;20223;-81
2022/09/30 01:54:18;;;;;;;39.73;22.57;;;6.70;99.90;;;;;;4919074;29;20198;-80
2022/09/30 01:57:23;;;;;;;38.70;23.23;;;6.60;99.90;;;;;;4880045;29;20211;-80
2022/09/30 01:59:57;;;;;;;40.60;22.93;;;6.50;99.90;;;;;;4846308;29;20287;-82
2022/09/30 02:02:28;;;;;;;38.30;22.13;;;6.60;99.90;;;;;;4846670;29;20221;-80
2022/09/30 02:05:29;;;;;;;39.83;21.67;;;6.50;99.90;;;;;;4860484;29;20336;-81
2022/09/30 02:08:36;;;;;;;38.13;21.70;;;6.60;99.90;;;;;;4877356;29;20217;-79
2022/09/30 02:11:35;;;;;;;35.93;20.03;;;6.60;99.90;;;;;;4854878;29;20235;-79
2022/09/30 02:14:28;;;;;;;36.30;20.17;;;6.50;99.90;;;;;;4877384;29;20558;-79
2022/09/30 02:17:08;;;;;;;36.17;20.67;;;6.50;99.90;;;;;;4877067;29;20211;-79
2022/09/30 02:19:43;;;;;;;36.80;20.37;;;6.40;99.90;;;;;;4861743;29;20679;-79
2022/09/30 02:22:42;;;;;;;36.70;20.40;;;6.30;99.90;;;;;;4861421;29;20213;-79
2022/09/30 02:25:19;;;;;;;33.93;19.87;;;6.30;99.90;;;;;;4861258;29;20202;-81
2022/09/30 02:27:58;;;;;;;34.67;19.57;;;6.30;99.90;;;;;;4846884;29;20206;-81
2022/09/30 02:30:28;;;;;;;36.20;19.50;;;6.20;99.90;;;;;;4885200;29;20236;-81
2022/09/30 02:33:18;;;;;;;35.13;19.93;;;6.20;99.90;;;;;;4897448;29;20228;-80
2022/09/30 02:35:56;;;;;;;34.37;19.13;;;6.10;99.90;;;;;;4926244;29;20693;-80
2022/09/30 02:38:42;;;;;;;31.53;18.60;;;6.10;99.90;;;;;;4904076;29;20200;-80
2022/09/30 02:41:31;;;;;;;34.63;20.50;;;6.00;99.90;;;;;;4920464;29;20206;-80
2022/09/30 02:44:01;;;;;;;33.50;18.77;;;5.90;99.90;;;;;;4903134;29;20208;-80
2022/09/30 02:47:22;;;;;;;33.43;19.80;;;5.90;99.90;;;;;;4903460;29;20231;-80
2022/09/30 02:50:17;;;;;;;33.33;19.53;;;5.90;99.90;;;;;;4893714;29;20223;-79
2022/09/30 02:53:20;;;;;;;32.67;19.30;;;5.80;99.90;;;;;;4903311;29;20291;-79
2022/09/30 02:56:09;;;;;;;32.40;18.90;;;5.80;99.90;;;;;;4919901;23;20290;-80
2022/09/30 02:58:45;;;;;;;31.03;19.03;;;5.80;99.90;;;;;;4939432;29;20568;-79
2022/09/30 03:01:15;;;;;;;36.20;20.00;;;5.70;99.90;;;;;;4922143;29;20536;-80
2022/09/30 03:03:47;;;;;;;33.73;19.30;;;5.70;99.90;;;;;;4921921;29;20198;-80
2022/09/30 03:06:15;;;;;;;31.87;19.13;;;5.60;99.90;;;;;;4921936;29;20218;-80
2022/09/30 03:08:43;;;;;;;35.33;19.50;;;5.70;99.90;;;;;;4921940;29;20216;-78
2022/09/30 03:11:18;;;;;;;34.83;19.73;;;5.60;99.90;;;;;;4938534;29;20243;-80
2022/09/30 03:14:23;;;;;;;31.63;18.90;;;5.70;99.90;;;;;;4919727;29;20229;-82
2022/09/30 03:17:09;;;;;;;33.43;19.33;;;5.60;99.90;;;;;;4937355;29;20674;-79
2022/09/30 03:20:03;;;;;;;33.90;19.07;;;5.60;99.90;;;;;;4938931;29;20553;-79
2022/09/30 03:22:35;;;;;;;37.53;18.50;;;5.50;99.90;;;;;;4938896;29;20277;-85
2022/09/30 03:25:08;;;;;;;32.00;19.00;;;5.60;99.90;;;;;;4921442;29;20236;-79
2022/09/30 03:27:44;;;;;;;32.00;18.93;;;5.50;99.90;;;;;;4921532;29;20222;-79
2022/09/30 03:30:16;;;;;;;31.57;18.20;;;5.40;99.90;;;;;;4905949;29;20542;-79
2022/09/30 03:33:10;;;;;;;32.23;19.03;;;5.40;99.90;;;;;;4921216;29;20246;-79
2022/09/30 03:36:13;;;;;;;33.63;18.67;;;5.40;99.90;;;;;;4921449;29;20714;-80
2022/09/30 03:39:01;;;;;;;33.87;18.80;;;5.40;99.90;;;;;;4921161;29;20210;-80
2022/09/30 03:41:41;;;;;;;33.70;18.40;;;5.40;99.90;;;;;;4922145;29;20221;-80
2022/09/30 03:44:22;;;;;;;31.50;18.77;;;5.50;99.90;;;;;;4921326;29;20248;-80
2022/09/30 03:47:00;;;;;;;33.60;18.30;;;5.50;99.90;;;;;;4920752;29;20203;-79
2022/09/30 03:49:34;;;;;;;34.37;18.37;;;5.40;99.90;;;;;;4937054;29;20207;-80
2022/09/30 03:52:12;;;;;;;32.13;18.03;;;5.40;99.90;;;;;;4905757;29;20229;-79
2022/09/30 03:55:03;;;;;;;30.60;17.73;;;5.50;99.90;;;;;;4921087;29;20234;-80
2022/09/30 03:57:33;;;;;;;34.07;18.70;;;5.50;99.90;;;;;;4920781;29;20196;-80
2022/09/30 04:00:00;;;;;;;33.37;18.93;;;5.50;99.90;;;;;;4931084;23;20243;-79
2022/09/30 04:02:50;;;;;;;32.30;17.90;;;5.50;99.90;;;;;;4925915;29;20217;-80
2022/09/30 04:05:40;;;;;;;36.20;18.93;;;5.50;99.90;;;;;;4925831;29;20207;-78
2022/09/30 04:08:10;;;;;;;34.77;19.07;;;5.50;99.90;;;;;;4956794;29;20204;-79
2022/09/30 04:10:42;;;;;;;33.37;19.30;;;5.40;99.90;;;;;;4939734;29;20250;-79
2022/09/30 04:13:18;;;;;;;37.70;19.50;;;5.40;99.90;;;;;;4956754;29;20203;-79
2022/09/30 04:15:52;;;;;;;34.53;19.70;;;5.50;99.90;;;;;;4939397;29;20554;-80
2022/09/30 04:18:26;;;;;;;35.20;20.33;;;5.40;99.90;;;;;;4963565;23;20234;-80
2022/09/30 04:21:07;;;;;;;34.23;19.67;;;5.30;99.90;;;;;;4940065;29;20212;-80
2022/09/30 04:24:07;;;;;;;35.60;21.10;;;5.40;99.90;;;;;;4939843;29;20198;-82
2022/09/30 04:26:34;;;;;;;39.93;20.87;;;5.30;99.90;;;;;;4939131;23;20285;-80
2022/09/30 04:29:03;;;;;;;36.30;21.07;;;5.40;99.90;;;;;;4939938;29;20283;-80
2022/09/30 04:32:18;;;;;;;38.30;21.27;;;5.30;99.90;;;;;;4939296;29;20223;-83
2022/09/30 04:35:23;;;;;;;40.63;22.00;;;5.40;99.90;;;;;;4911811;29;20684;-85
2022/09/30 04:38:07;;;;;;;41.43;22.93;;;5.40;99.90;;;;;;4854071;29;20714;-86
2022/09/30 04:40:49;;;;;;;38.47;22.10;;;5.40;99.90;;;;;;4845545;29;20233;-86
2022/09/30 04:43:37;;;;;;;38.80;22.10;;;5.40;99.90;;;;;;4893813;29;20735;-81
2022/09/30 04:46:22;;;;;;;42.83;23.30;;;5.30;99.90;;;;;;4881399;29;20670;-81
2022/09/30 04:49:08;;;;;;;43.53;23.20;;;5.30;99.90;;;;;;4881460;29;20201;-82
2022/09/30 04:51:58;;;;;;;45.13;25.10;;;5.30;99.90;;;;;;4840976;29;20237;-81
2022/09/30 04:54:25;;;;;;;49.27;25.80;;;5.40;99.90;;;;;;4841267;29;20208;-81
2022/09/30 04:56:51;;;;;;;49.50;26.23;;;5.50;99.90;;;;;;4840428;29;20208;-81
2022/09/30 04:59:18;;;;;;;49.77;26.00;;;5.50;99.90;;;;;;4841163;29;20270;-81
2022/09/30 05:02:04;;;;;;;52.27;26.00;;;5.50;99.90;;;;;;4841173;29;20332;-85
2022/09/30 05:05:38;;;;;;;51.33;25.20;;;5.60;99.90;;;;;;4841135;29;20224;-84
2022/09/30 05:11:24;;;;;;;51.93;24.77;;;5.70;99.90;;;;;;1197467;27;20710;-83
2022/09/30 05:20:21;;;;;;;44.50;23.90;;;5.70;99.90;;;;;;4966874;23;20645;-83
2022/09/30 05:22:56;;;;;;;44.80;24.00;;;5.80;99.90;;;;;;4934531;29;20210;-85
2022/09/30 05:25:28;;;;;;;41.87;22.60;;;5.70;99.90;;;;;;4936073;29;20204;-79
2022/09/30 05:27:55;;;;;;;42.70;23.07;;;5.80;99.90;;;;;;4953091;29;20213;-78
2022/09/30 05:30:22;;;;;;;45.17;23.60;;;5.80;99.90;;;;;;4938031;29;20658;-81
2022/09/30 05:32:59;;;;;;;43.63;22.70;;;5.80;99.90;;;;;;4938261;29;20227;-80
2022/09/30 05:35:26;;;;;;;38.10;21.97;;;5.80;99.90;;;;;;4948413;29;20604;-78
2022/09/30 05:38:08;;;;;;;37.30;20.33;;;5.80;99.90;;;;;;4918807;29;20207;-78
2022/09/30 05:40:40;;;;;;;34.43;20.37;;;5.80;99.90;;;;;;4918999;29;20286;-78
2022/09/30 05:43:07;;;;;;;36.57;20.23;;;5.80;99.90;;;;;;4929808;29;20218;-83
2022/09/30 05:45:34;;;;;;;32.93;19.87;;;5.80;99.90;;;;;;4900004;29;20206;-81
2022/09/30 05:48:01;;;;;;;35.90;19.80;;;5.80;99.90;;;;;;4899703;29;20208;-81
2022/09/30 05:50:28;;;;;;;34.90;19.50;;;5.80;99.90;;;;;;4899845;29;20207;-77
2022/09/30 05:52:56;;;;;;;37.10;19.90;;;5.70;99.90;;;;;;4912730;29;20238;-79
2022/09/30 05:55:25;;;;;;;36.43;19.77;;;5.80;99.90;;;;;;4899626;29;20213;-76
2022/09/30 05:57:52;;;;;;;33.80;19.37;;;5.90;99.90;;;;;;4884500;29;20215;-79
2022/09/30 06:00:19;;;;;;;33.60;18.67;;;5.80;99.90;;;;;;4910610;29;20200;-78
2022/09/30 06:02:50;;;;;;;35.13;19.23;;;5.90;99.90;;;;;;4918741;29;20329;-78
2022/09/30 06:05:18;;;;;;;34.80;18.40;;;5.90;99.90;;;;;;4919282;29;20195;-76
2022/09/30 06:07:44;;;;;;;40.20;19.33;;;5.80;99.90;;;;;;4918695;29;20191;-79
2022/09/30 06:10:11;;;;;;;37.83;19.80;;;5.90;99.90;;;;;;4935505;29;20196;-77
2022/09/30 06:12:38;;;;;;;40.60;20.40;;;5.80;99.90;;;;;;4918309;29;20219;-77
2022/09/30 06:15:09;;;;;;;39.57;20.90;;;5.90;99.90;;;;;;4858016;29;20206;-81
2022/09/30 06:17:42;;;;;;;40.63;20.33;;;5.80;99.90;;;;;;4858525;29;20778;-82
2022/09/30 06:20:21;;;;;;;42.67;20.40;;;5.90;99.90;;;;;;4842725;29;20235;-81
2022/09/30 06:23:15;;;;;;;38.97;20.13;;;5.90;99.90;;;;;;4842711;29;20237;-80
2022/09/30 06:25:43;;;;;;;43.20;21.47;;;5.80;99.90;;;;;;4842799;29;20211;-85
2022/09/30 06:28:10;;;;;;;41.80;20.87;;;5.90;99.90;;;;;;4834492;29;20666;-82
2022/09/30 06:30:37;;;;;;;41.30;21.53;;;6.00;99.90;;;;;;4898470;23;20238;-86
2022/09/30 06:33:04;;;;;;;45.37;22.37;;;6.10;99.90;;;;;;4931494;23;20248;-78
2022/09/30 06:38:16;;;;;;;39.67;20.70;;;6.00;99.90;;;;;;4558963;27;20289;-82
2022/09/30 06:40:48;;;;;;;39.70;21.07;;;6.10;99.90;;;;;;4934224;29;20205;-78
2022/09/30 06:43:18;;;;;;;41.57;20.33;;;6.10;99.90;;;;;;4925046;29;20685;-75
2022/09/30 06:45:47;;;;;;;37.57;20.53;;;6.10;99.90;;;;;;4916072;29;20201;-78
2022/09/30 06:48:15;;;;;;;38.53;20.77;;;6.20;99.90;;;;;;4915687;29;20212;-79
2022/09/30 06:50:54;;;;;;;34.87;19.73;;;6.30;99.90;;;;;;4900642;29;20246;-77
2022/09/30 06:53:28;;;;;;;36.30;19.27;;;6.50;99.90;;;;;;4930885;29;20625;-80
2022/09/30 06:56:05;;;;;;;37.73;19.67;;;6.60;99.90;;;;;;4930751;29;20207;-77
2022/09/30 06:58:32;;;;;;;34.63;20.03;;;6.70;99.90;;;;;;4916506;29;20236;-76
2022/09/30 07:01:02;;;;;;;36.37;19.33;;;6.90;99.90;;;;;;4914922;29;20209;-76
2022/09/30 07:03:32;;;;;;;33.10;19.57;;;7.10;99.90;;;;;;4915299;29;20216;-78
2022/09/30 07:06:04;;;;;;;35.07;19.67;;;7.40;99.90;;;;;;4914906;29;20261;-77
2022/09/30 07:08:32;;;;;;;37.03;19.53;;;7.60;99.90;;;;;;4916502;29;20550;-80
2022/09/30 07:11:03;;;;;;;33.27;18.93;;;7.80;99.90;;;;;;4916001;29;20200;-78
2022/09/30 07:13:32;;;;;;;36.80;19.77;;;8.10;99.90;;;;;;4921633;29;20207;-77
2022/09/30 07:15:59;;;;;;;38.10;20.73;;;8.30;99.90;;;;;;4924097;29;20569;-86
2022/09/30 07:18:26;;;;;;;38.17;19.70;;;8.30;99.90;;;;;;4909236;29;20538;-75
2022/09/30 07:20:55;;;;;;;35.27;19.60;;;8.30;99.90;;;;;;4917795;29;20202;-76
2022/09/30 07:23:24;;;;;;;39.63;21.00;;;8.40;99.90;;;;;;4916875;29;20656;-77
2022/09/30 07:25:56;;;;;;;36.60;20.33;;;8.60;99.90;;;;;;4919294;29;20269;-77
2022/09/30 07:28:30;;;;;;;39.70;20.77;;;8.70;99.90;;;;;;4927052;29;20199;-87
2022/09/30 07:31:14;;;;;;;41.70;20.97;;;8.80;99.90;;;;;;4919729;29;20205;-90
2022/09/30 07:34:00;;;;;;;39.80;21.57;;;8.80;99.90;;;;;;4911440;23;20699;-82
2022/09/30 07:36:30;;;;;;;39.87;20.93;;;8.90;99.90;;;;;;4917649;29;20230;-83
2022/09/30 07:39:06;;;;;;;41.73;22.03;;;8.90;99.90;;;;;;4904364;29;20212;-81
2022/09/30 07:41:36;;;;;;;38.73;21.50;;;9.10;99.90;;;;;;4905702;29;20243;-77
2022/09/30 07:44:08;;;;;;;38.23;20.87;;;9.20;99.90;;;;;;4893623;29;20264;-81
2022/09/30 07:46:37;;;;;;;38.30;20.87;;;9.10;99.90;;;;;;4895632;29;20214;-80
2022/09/30 07:49:08;;;;;;;40.60;21.27;;;9.30;99.90;;;;;;4883948;29;20196;-79
2022/09/30 07:51:38;;;;;;;39.77;20.80;;;9.40;99.90;;;;;;4897654;29;20204;-78
2022/09/30 07:54:11;;;;;;;38.17;21.57;;;9.50;99.90;;;;;;4882718;29;20236;-77
2022/09/30 07:56:39;;;;;;;38.27;21.17;;;9.60;99.90;;;;;;4896411;29;20286;-79
2022/09/30 07:59:28;;;;;;;36.40;21.33;;;9.60;99.90;;;;;;4897938;29;20218;-78
2022/09/30 08:02:25;;;;;;;40.83;21.53;;;9.70;99.90;;;;;;4883638;29;20192;-76
2022/09/30 08:04:52;;;;;;;39.40;21.53;;;9.80;99.90;;;;;;4885577;29;20208;-78
2022/09/30 08:07:19;;;;;;;39.80;21.93;;;9.80;99.90;;;;;;4899489;29;20207;-81
2022/09/30 08:09:46;;;;;;;39.33;21.80;;;9.90;99.90;;;;;;4891116;29;20204;-77
2022/09/30 08:12:14;;;;;;;40.40;22.47;;;10.10;99.90;;;;;;4881232;29;20561;-77
2022/09/30 08:14:46;;;;;;;38.90;22.27;;;10.20;99.90;;;;;;4880263;29;20204;-76
2022/09/30 08:17:13;;;;;;;39.37;22.17;;;10.40;99.90;;;;;;4909446;29;20633;-77
2022/09/30 08:19:43;;;;;;;38.30;21.63;;;10.50;99.90;;;;;;4899595;29;20199;-76
2022/09/30 08:22:26;;;;;;;39.93;22.13;;;10.60;99.90;;;;;;4896174;29;20669;-76
2022/09/30 08:24:54;;;;;;;37.27;21.27;;;10.70;99.90;;;;;;4895804;29;20291;-76
2022/09/30 08:27:20;;;;;;;40.57;21.77;;;10.80;99.90;;;;;;4896079;29;20303;-80
2022/09/30 08:29:48;;;;;;;38.03;21.77;;;10.90;99.90;;;;;;4909619;29;20302;-77
2022/09/30 08:32:22;;;;;;;36.63;21.00;;;10.90;99.90;;;;;;4899510;29;20343;-79
2022/09/30 08:34:59;;;;;;;37.30;21.70;;;11.20;99.90;;;;;;4899745;29;20662;-81
2022/09/30 08:37:26;;;;;;;38.80;22.77;;;11.40;99.90;;;;;;4893921;29;20304;-79
2022/09/30 08:39:53;;;;;;;38.40;21.73;;;11.60;99.90;;;;;;4911792;29;20594;-79
2022/09/30 08:42:34;;;;;;;40.23;22.60;;;11.60;99.90;;;;;;4898888;29;20215;-82
2022/09/30 08:45:38;;;;;;;38.43;22.07;;;11.70;99.90;;;;;;4898298;29;20207;-80
2022/09/30 08:48:27;;;;;;;35.87;21.43;;;11.80;99.90;;;;;;4858507;29;20251;-81
2022/09/30 08:51:12;;;;;;;36.67;21.37;;;11.90;99.90;;;;;;4875789;29;20601;-79
2022/09/30 08:53:44;;;;;;;37.33;22.07;;;12.00;99.90;;;;;;4875428;29;20237;-81
2022/09/30 08:56:23;;;;;;;35.43;21.17;;;11.90;99.90;;;;;;4858057;29;20206;-78
2022/09/30 08:58:56;;;;;;;36.57;21.70;;;12.00;99.90;;;;;;4844266;29;20358;-78
2022/09/30 09:01:34;;;;;;;35.60;21.63;;;12.00;99.90;;;;;;4857771;29;20227;-80
2022/09/30 09:04:04;;;;;;;32.40;20.33;;;12.10;99.90;;;;;;4843771;29;20202;-75
2022/09/30 09:07:24;;;;;;;31.70;19.77;;;12.20;99.90;;;;;;4843879;29;20572;-76
2022/09/30 09:10:13;;;;;;;27.47;18.10;;;12.20;99.90;;;;;;4832217;29;20686;-75
2022/09/30 09:13:11;;;;;;;24.40;17.47;;;12.30;99.90;;;;;;4802291;29;20337;-74
2022/09/30 09:16:00;;;;;;;24.77;17.13;;;12.40;99.90;;;;;;4807675;29;20218;-75
2022/09/30 09:18:53;;;;;;;26.13;17.30;;;12.40;99.90;;;;;;4826232;29;20608;-73
2022/09/30 09:21:37;;;;;;;23.97;16.17;;;12.40;99.90;;;;;;4815169;29;20721;-75
2022/09/30 09:24:37;;;;;;;21.30;15.17;;;12.50;99.90;;;;;;4835047;29;20201;-78
2022/09/30 09:27:35;;;;;;;23.17;16.70;;;12.60;99.90;;;;;;4855075;29;20608;-77
2022/09/30 09:30:18;;;;;;;24.83;15.80;;;12.80;99.90;;;;;;4862163;29;20215;-75
2022/09/30 09:32:54;;;;;;;22.67;16.07;;;12.80;99.90;;;;;;4859101;29;20259;-77
2022/09/30 09:35:48;;;;;;;25.13;15.60;;;12.90;99.90;;;;;;4853333;29;20205;-76
2022/09/30 09:38:38;;;;;;;22.00;14.80;;;13.00;99.90;;;;;;4861411;29;20265;-73
2022/09/30 09:41:08;;;;;;;22.30;15.20;;;13.10;99.90;;;;;;4927160;23;20653;-78
2022/09/30 09:43:57;;;;;;;18.17;13.90;;;13.00;99.90;;;;;;4919497;29;20206;-75
2022/09/30 09:46:49;;;;;;;22.23;14.77;;;13.00;99.90;;;;;;4905036;29;20199;-77
2022/09/30 09:49:22;;;;;;;20.70;14.03;;;13.00;99.90;;;;;;4930751;23;20239;-77
2022/09/30 09:54:55;;;;;;;21.33;13.93;;;13.00;99.90;;;;;;4934386;29;20203;-76
2022/09/30 09:57:38;;;;;;;24.50;14.83;;;13.10;99.90;;;;;;4918940;29;20235;-77
2022/09/30 10:03:22;;;;;;;20.67;13.50;;;13.20;99.90;;;;;;4877323;29;20275;-75
2022/09/30 10:06:05;;;;;;;20.70;12.90;;;13.20;99.90;;;;;;4846129;29;20196;-76
2022/09/30 10:08:50;;;;;;;23.67;13.93;;;13.30;99.90;;;;;;4861588;29;20261;-78
2022/09/30 10:11:22;;;;;;;19.40;12.83;;;13.30;99.90;;;;;;4876998;29;20202;-77
2022/09/30 10:13:51;;;;;;;20.93;13.07;;;13.30;99.90;;;;;;4861126;29;20257;-75
2022/09/30 10:16:36;;;;;;;22.90;13.40;;;13.40;99.90;;;;;;4861024;29;20208;-75
2022/09/30 10:19:16;;;;;;;21.23;12.30;;;13.60;99.90;;;;;;4861180;29;20221;-77
2022/09/30 10:22:06;;;;;;;20.40;13.00;;;13.60;99.90;;;;;;4855168;29;20228;-76
2022/09/30 10:24:35;;;;;;;18.90;12.17;;;13.60;99.90;;;;;;4864008;29;20209;-76
2022/09/30 10:27:03;;;;;;;19.07;11.67;;;13.70;99.90;;;;;;4855058;29;20212;-77
2022/09/30 10:29:34;;;;;;;16.53;10.47;;;13.70;99.90;;;;;;4858311;29;20209;-76
2022/09/30 10:32:08;;;;;;;15.70;10.00;;;13.70;99.90;;;;;;4867305;29;20212;-76
2022/09/30 10:34:38;;;;;;;15.73;10.03;;;13.80;99.90;;;;;;4866691;29;20863;-75
2022/09/30 10:37:14;;;;;;;12.43;8.43;;;13.80;99.90;;;;;;4858394;29;20269;-78
2022/09/30 10:39:43;;;;;;;15.93;9.00;;;13.90;99.90;;;;;;4857897;29;20210;-76
2022/09/30 10:42:25;;;;;;;12.83;8.50;;;13.90;99.90;;;;;;4899194;29;20568;-77
2022/09/30 10:45:01;;;;;;;13.90;9.27;;;14.00;99.90;;;;;;4914885;29;20669;-75
2022/09/30 10:47:29;;;;;;;15.33;9.30;;;14.10;99.90;;;;;;4913192;29;20565;-77
2022/09/30 10:50:15;;;;;;;12.93;8.90;;;14.20;99.90;;;;;;4896355;29;20207;-73
2022/09/30 10:53:03;;;;;;;14.53;8.73;;;14.30;99.90;;;;;;4896031;29;20271;-74
2022/09/30 10:55:31;;;;;;;12.93;8.53;;;14.40;99.90;;;;;;4897500;29;20216;-75
2022/09/30 10:58:21;;;;;;;12.40;8.47;;;14.50;99.90;;;;;;4910380;29;20258;-75
2022/09/30 11:00:59;;;;;;;12.60;8.20;;;14.60;99.90;;;;;;4920643;29;20196;-76
2022/09/30 11:03:38;;;;;;;11.43;7.97;;;14.70;99.90;;;;;;4907990;29;20720;-74
2022/09/30 11:06:08;;;;;;;10.67;7.10;;;14.70;99.90;;;;;;4910721;29;20203;-78
2022/09/30 11:08:47;;;;;;;12.47;7.13;;;14.50;99.90;;;;;;4914763;29;20192;-76
2022/09/30 11:11:19;;;;;;;11.03;6.90;;;14.50;99.90;;;;;;4924818;23;20246;-78
2022/09/30 11:14:24;;;;;;;10.43;6.90;;;14.50;99.90;;;;;;4934459;29;20581;-78
2022/09/30 11:17:02;;;;;;;10.07;6.40;;;14.60;99.90;;;;;;4937216;29;20265;-76
2022/09/30 11:20:08;;;;;;;9.23;6.20;;;14.50;99.90;;;;;;4935175;29;20194;-78
2022/09/30 11:22:58;;;;;;;9.00;5.87;;;14.50;99.90;;;;;;4936818;29;20197;-78
2022/09/30 11:26:09;;;;;;;8.97;5.83;;;14.40;99.90;;;;;;4922233;23;20231;-78
2022/09/30 11:28:57;;;;;;;6.73;5.33;;;14.30;99.90;;;;;;4917795;29;20203;-78
2022/09/30 11:31:49;;;;;;;7.80;5.80;;;14.40;99.90;;;;;;4905326;29;20205;-77
2022/09/30 11:34:47;;;;;;;8.53;5.93;;;14.50;99.90;;;;;;4912041;23;20210;-79
2022/09/30 11:37:25;;;;;;;8.23;6.10;;;14.60;99.90;;;;;;4889652;29;20239;-75
2022/09/30 11:40:10;;;;;;;10.17;6.40;;;14.50;99.90;;;;;;4875172;29;20197;-77
2022/09/30 11:42:54;;;;;;;7.63;5.80;;;14.50;99.90;;;;;;4894542;29;20241;-76
2022/09/30 11:45:54;;;;;;;9.17;6.07;;;14.60;99.90;;;;;;4895594;29;20252;-78
2022/09/30 11:48:55;;;;;;;8.60;5.80;;;14.50;99.90;;;;;;4879995;29;20239;-72
2022/09/30 11:51:56;;;;;;;7.40;5.70;;;14.40;99.90;;;;;;4894326;29;20303;-76
2022/09/30 11:54:38;;;;;;;8.40;5.60;;;14.40;99.90;;;;;;4881686;29;20319;-77
2022/09/30 12:00:27;;;;;;;8.30;5.87;;;14.20;99.90;;;;;;4863098;29;20210;-75
2022/09/30 12:03:05;;;;;;;8.13;5.93;;;14.20;99.90;;;;;;4865139;29;20261;-77
2022/09/30 12:05:40;;;;;;;7.33;5.70;;;14.10;99.90;;;;;;4861686;29;20204;-79
2022/09/30 12:08:41;;;;;;;9.80;5.70;;;14.00;99.90;;;;;;4879842;29;20193;-81
2022/09/30 12:11:12;;;;;;;12.03;6.37;;;14.10;99.90;;;;;;4872337;29;20209;-78
2022/09/30 12:13:46;;;;;;;8.93;6.40;;;14.00;99.90;;;;;;4876845;29;20222;-77
2022/09/30 12:16:20;;;;;;;8.17;5.97;;;14.10;99.90;;;;;;4879097;29;20227;-77
2022/09/30 12:19:13;;;;;;;7.77;6.00;;;14.10;99.90;;;;;;4873046;29;20926;-76
2022/09/30 12:22:04;;;;;;;7.93;5.60;;;14.00;99.90;;;;;;4828226;29;20207;-79
2022/09/30 12:24:49;;;;;;;8.30;5.60;;;14.00;99.90;;;;;;4809663;29;20213;-78
2022/09/30 12:27:37;;;;;;;7.90;6.00;;;14.10;99.90;;;;;;4819934;29;20221;-79
2022/09/30 12:30:17;;;;;;;9.57;6.00;;;14.00;99.90;;;;;;4832239;29;20221;-83
2022/09/30 12:33:05;;;;;;;8.83;5.97;;;14.00;99.90;;;;;;4826461;29;20214;-75
2022/09/30 12:36:13;;;;;;;6.93;5.23;;;14.10;99.90;;;;;;4833455;29;20219;-77
2022/09/30 12:39:01;;;;;;;6.83;5.00;;;14.10;99.90;;;;;;4807796;29;20217;-77
2022/09/30 12:41:41;;;;;;;10.00;5.17;;;14.20;99.90;;;;;;4814769;29;20219;-78
2022/09/30 12:44:34;;;;;;;6.00;4.97;;;14.20;99.90;;;;;;4802578;29;20207;-77
2022/09/30 12:47:23;;;;;;;6.10;4.63;;;14.20;99.90;;;;;;4803128;29;20219;-79
2022/09/30 12:49:56;;;;;;;8.00;4.57;;;14.10;99.90;;;;;;4804788;29;20203;-78
2022/09/30 12:52:25;;;;;;;8.40;5.00;;;14.10;99.90;;;;;;4803734;29;20207;-79
2022/09/30 12:55:36;;;;;;;6.03;4.30;;;14.30;99.90;;;;;;4815841;29;20234;-82
2022/09/30 12:58:04;;;;;;;7.27;4.13;;;14.40;99.90;;;;;;4826479;29;20237;-80
2022/09/30 13:00:36;;;;;;;6.87;4.40;;;14.40;99.90;;;;;;4842190;29;20194;-77
2022/09/30 13:03:09;;;;;;;5.77;3.97;;;14.30;99.90;;;;;;4846261;29;20648;-77
2022/09/30 13:05:49;;;;;;;4.70;3.80;;;14.40;99.90;;;;;;4839106;29;20203;-77
2022/09/30 13:08:19;;;;;;;6.27;4.10;;;14.40;99.90;;;;;;4854219;29;20212;-76
2022/09/30 13:11:05;;;;;;;6.00;3.83;;;14.40;99.90;;;;;;4850195;29;20213;-79
2022/09/30 13:13:35;;;;;;;5.70;3.80;;;14.50;99.90;;;;;;4840774;29;20210;-76
2022/09/30 13:16:05;;;;;;;4.90;3.63;;;14.50;99.90;;;;;;4824226;29;20205;-79
2022/09/30 13:18:32;;;;;;;5.23;3.43;;;14.50;99.90;;;;;;4842366;29;20620;-75
2022/09/30 13:21:06;;;;;;;5.00;3.73;;;14.50;99.90;;;;;;4829322;29;20569;-75
2022/09/30 13:23:45;;;;;;;8.00;3.50;;;14.30;99.90;;;;;;4851344;29;20313;-76
2022/09/30 13:26:21;;;;;;;6.27;3.90;;;14.20;99.90;;;;;;4863148;29;20222;-74
2022/09/30 13:28:50;;;;;;;5.77;3.80;;;14.20;99.90;;;;;;4861310;29;20269;-74
2022/09/30 13:31:19;;;;;;;6.43;4.20;;;14.20;99.90;;;;;;4846322;29;20220;-76
2022/09/30 13:34:10;;;;;;;7.10;4.23;;;14.10;99.90;;;;;;4860571;29;20225;-78
2022/09/30 13:36:43;;;;;;;5.70;4.10;;;14.10;99.90;;;;;;4843907;29;20221;-76
2022/09/30 13:39:26;;;;;;;9.40;4.10;;;14.10;99.90;;;;;;4842596;29;20208;-76
2022/09/30 13:41:59;;;;;;;6.73;4.37;;;14.20;99.90;;;;;;4845769;29;20292;-77
2022/09/30 13:45:06;;;;;;;6.93;4.23;;;14.20;99.90;;;;;;4843926;29;20198;-77
2022/09/30 13:47:42;;;;;;;6.27;4.70;;;14.20;99.90;;;;;;4826792;29;20201;-76
2022/09/30 13:50:15;;;;;;;6.03;4.43;;;14.30;99.90;;;;;;4841492;29;20210;-75
2022/09/30 13:52:44;;;;;;;7.33;4.63;;;14.10;99.90;;;;;;4837586;29;20267;-75
2022/09/30 13:55:18;;;;;;;8.67;5.07;;;14.00;99.90;;;;;;4851094;29;20229;-78
2022/09/30 13:58:11;;;;;;;6.93;4.80;;;13.90;99.90;;;;;;4857838;29;20229;-78
2022/09/30 14:00:47;;;;;;;6.80;4.47;;;13.90;99.90;;;;;;4839976;29;20682;-74
2022/09/30 14:03:43;;;;;;;6.17;4.70;;;13.90;99.90;;;;;;4858851;29;20189;-77
2022/09/30 14:06:36;;;;;;;8.30;4.53;;;13.80;99.90;;;;;;4843001;29;20212;-75